Time;durP1;ratioP1;P1;durP2;ratioP2;P2;SDS_P1;SDS_P2;PMS_P1;PMS_P2;Temp;Humidity;BMP_temperature;BMP_pressure;BME280_temperature;BME280_humidity;BME280_pressure;Samples;Min_cycle;Max_cycle;Signal;HPM_P1;HPM_P2
2022/06/23 00:01:47;;;;;;;3.13;1.90;;;;;;;15.11;59.26;99965.23;1410200;92;21473;-77
2022/06/23 00:04:19;;;;;;;6.37;2.17;;;;;;;15.04;58.72;99961.65;1405657;91;21534;-77
2022/06/23 00:06:55;;;;;;;6.23;2.30;;;;;;;14.94;59.27;99953.14;1340466;90;21331;-77
2022/06/23 00:09:36;;;;;;;7.30;2.20;;;;;;;14.91;59.39;99960.19;1367851;92;22235;-77
2022/06/23 00:12:15;;;;;;;;;;;;;;;14.86;59.28;99953.56;1485482;92;21253;-77
2022/06/23 00:14:41;;;;;;;2.57;1.97;;;;;;;14.83;61.17;99955.27;1347332;91;20818;-77
2022/06/23 00:17:33;;;;;;;3.30;1.70;;;;;;;14.81;59.47;99955.95;1467410;94;21238;-77
2022/06/23 00:20:08;;;;;;;5.43;1.97;;;;;;;14.83;60.43;99963.26;1444145;95;21299;-77
2022/06/23 00:22:34;;;;;;;2.33;1.90;;;;;;;14.86;60.89;99974.88;1404806;92;22304;-77
2022/06/23 00:25:04;;;;;;;3.03;2.00;;;;;;;14.89;60.98;99981.67;1343111;92;21269;-76
2022/06/23 00:27:35;;;;;;;7.97;2.45;;;;;;;14.97;60.53;99980.23;1492693;92;21313;-77
2022/06/23 00:30:27;;;;;;;3.30;2.37;;;;;;;15.06;59.86;99979.11;1486724;92;21482;-79
2022/06/23 00:32:53;;;;;;;2.87;2.00;;;;;;;15.12;60.19;99973.53;1404866;91;21310;-78
2022/06/23 00:35:20;;;;;;;3.50;2.27;;;;;;;15.16;60.15;99974.80;1421479;90;21252;-79
2022/06/23 00:37:51;;;;;;;3.27;2.17;;;;;;;15.19;61.09;99977.11;1471134;90;21200;-79
2022/06/23 00:40:22;;;;;;;4.03;1.80;;;;;;;15.20;59.47;99980.09;1499285;90;21290;-79
2022/06/23 00:43:02;;;;;;;4.87;2.30;;;;;;;15.18;59.64;99982.10;1321593;95;21313;-79
2022/06/23 00:45:40;;;;;;;7.08;2.40;;;;;;;15.12;59.37;99982.86;1470383;93;21343;-79
2022/06/23 00:48:26;;;;;;;3.83;2.03;;;;;;;15.06;59.80;99990.28;1350747;92;22118;-79
2022/06/23 00:51:33;;;;;;;7.17;2.67;;;;;;;15.01;59.77;99990.00;1353368;91;21414;-79
2022/06/23 00:54:13;;;;;;;6.63;2.50;;;;;;;14.97;59.87;99988.23;1407398;92;21253;-79
2022/06/23 00:56:54;;;;;;;5.53;2.22;;;;;;;14.95;59.53;99985.43;1397654;93;22570;-78
2022/06/23 00:59:38;;;;;;;3.47;2.40;;;;;;;14.91;59.89;99987.64;1402826;92;21490;-77
2022/06/23 01:02:15;;;;;;;10.83;2.63;;;;;;;14.85;59.94;99993.22;1399225;92;21408;-77
2022/06/23 01:05:07;;;;;;;4.77;2.90;;;;;;;14.81;59.91;99988.43;1413330;92;21526;-77
2022/06/23 01:07:42;;;;;;;5.33;3.27;;;;;;;14.78;59.75;99987.47;1413454;92;21467;-77
2022/06/23 01:10:55;;;;;;;6.70;3.13;;;;;;;14.76;59.91;99985.48;1411227;92;21511;-78
2022/06/23 01:13:38;;;;;;;4.57;2.97;;;;;;;14.74;59.98;99985.69;1393648;93;21823;-78
2022/06/23 01:16:21;;;;;;;8.70;3.00;;;;;;;14.72;60.92;99989.04;1395767;93;21413;-77
2022/06/23 01:19:20;;;;;;;7.83;3.37;;;;;;;14.73;60.92;99983.20;1379335;94;21614;-77
2022/06/23 01:21:54;;;;;;;7.60;2.93;;;;;;;14.74;61.05;99988.36;1404625;93;21458;-77
2022/06/23 01:24:41;;;;;;;4.80;3.03;;;;;;;14.80;61.21;99991.61;1407130;92;21600;-78
2022/06/23 01:27:47;;;;;;;8.13;3.00;;;;;;;14.85;61.05;99993.72;1420189;91;22516;-78
2022/06/23 01:30:14;;;;;;;8.13;3.07;;;;;;;14.85;61.13;99988.39;1393802;92;21416;-78
2022/06/23 01:32:47;;;;;;;7.37;3.80;;;;;;;14.87;61.00;99984.54;1405416;92;21526;-77
2022/06/23 01:35:27;;;;;;;6.33;3.20;;;;;;;14.89;60.79;99976.34;1401845;92;21489;-76
2022/06/23 01:38:01;;;;;;;8.33;3.33;;;;;;;14.88;61.52;99979.52;1418322;92;22435;-76
2022/06/23 01:40:51;;;;;;;6.67;2.77;;;;;;;14.85;61.61;99989.22;1417825;92;21452;-77
2022/06/23 01:43:34;;;;;;;8.83;3.10;;;;;;;14.80;61.85;99976.95;1409865;92;21415;-77
2022/06/23 01:46:08;;;;;;;5.27;3.17;;;;;;;14.77;61.61;99975.17;1404466;92;21703;-77
2022/06/23 01:48:51;;;;;;;4.57;2.57;;;;;;;14.73;61.53;99974.73;1395572;93;22492;-78
2022/06/23 01:51:42;;;;;;;4.20;3.03;;;;;;;14.74;61.33;99977.70;1389191;93;21484;-78
2022/06/23 01:54:23;;;;;;;8.33;2.93;;;;;;;14.75;60.80;99975.34;1415913;92;21363;-78
2022/06/23 01:57:02;;;;;;;;;;;;;;;14.77;60.44;99965.85;1412666;92;21445;-78
2022/06/23 01:59:42;;;;;;;7.47;3.27;;;;;;;14.77;62.51;99970.66;1407392;92;20333;-77
2022/06/23 02:02:17;;;;;;;6.58;3.02;;;;;;;14.75;61.42;99974.02;1400317;93;21446;-78
2022/06/23 02:05:32;;;;;;;4.80;2.50;;;;;;;14.73;61.04;99976.06;1404241;93;21607;-78
2022/06/23 02:08:36;;;;;;;3.90;3.03;;;;;;;14.70;60.73;99968.41;1409651;93;22399;-78
2022/06/23 02:11:22;;;;;;;4.43;2.60;;;;;;;14.65;61.44;99975.64;1400838;91;21726;-81
2022/06/23 02:14:26;;;;;;;6.57;2.53;;;;;;;14.62;61.25;99979.19;1393131;93;21489;-83
2022/06/23 02:16:58;;;;;;;3.63;2.77;;;;;;;14.58;61.39;99987.20;1406395;93;22559;-82
2022/06/23 02:19:51;;;;;;;4.80;2.80;;;;;;;14.57;61.65;99997.04;1403528;93;21490;-81
2022/06/23 02:22:40;;;;;;;5.53;2.30;;;;;;;14.55;62.31;100003.05;1401808;92;21496;-82
2022/06/23 02:25:24;;;;;;;4.27;2.90;;;;;;;14.59;61.79;100004.86;1403466;93;21704;-82
2022/06/23 02:28:01;;;;;;;5.00;3.33;;;;;;;14.61;62.48;100011.62;1409869;92;21393;-81
2022/06/23 02:30:39;;;;;;;5.93;2.63;;;;;;;14.65;62.79;100006.27;1404835;92;21651;-82
2022/06/23 02:33:23;;;;;;;5.30;2.90;;;;;;;14.65;63.05;99998.80;1400971;93;22419;-82
2022/06/23 02:35:57;;;;;;;6.37;2.80;;;;;;;14.64;62.82;99997.97;1385539;94;22111;-82
2022/06/23 02:38:35;;;;;;;5.53;3.13;;;;;;;14.61;62.91;99999.64;1396655;93;21459;-82
2022/06/23 02:41:09;;;;;;;10.97;2.77;;;;;;;14.58;62.59;99995.20;1405917;93;21696;-82
2022/06/23 02:44:04;;;;;;;5.50;3.47;;;;;;;14.59;62.71;99998.20;1409220;92;21488;-82
2022/06/23 02:47:05;;;;;;;7.33;3.47;;;;;;;14.61;62.55;99994.83;1404065;92;21563;-82
2022/06/23 02:49:52;;;;;;;7.97;3.27;;;;;;;14.61;62.59;99992.16;1408180;93;21497;-81
2022/06/23 02:52:38;;;;;;;6.17;2.10;;;;;;;14.64;63.43;99996.64;1402954;93;21530;-81
2022/06/23 02:55:39;;;;;;;2.90;2.30;;;;;;;14.65;63.61;100007.60;1400256;92;21519;-81
2022/06/23 02:58:34;;;;;;;2.70;2.03;;;;;;;14.68;62.81;100017.06;1405047;93;21881;-81
2022/06/23 03:01:11;;;;;;;5.13;2.80;;;;;;;14.73;62.90;100020.48;1394611;93;22672;-81
2022/06/23 03:03:48;;;;;;;4.33;2.70;;;;;;;14.77;62.01;100021.28;1401163;93;21511;-82
2022/06/23 03:06:22;;;;;;;5.90;2.90;;;;;;;14.80;62.20;100019.58;1412744;93;21445;-82
2022/06/23 03:08:54;;;;;;;4.30;2.30;;;;;;;14.84;62.78;100022.17;1404361;93;22443;-81
2022/06/23 03:14:25;;;;;;;9.40;2.60;;;;;;;14.83;62.17;100032.53;1420611;92;22353;-81
2022/06/23 03:16:56;;;;;;;4.50;2.50;;;;;;;14.82;62.27;100032.22;1398992;93;21488;-81
2022/06/23 03:19:28;;;;;;;3.77;2.63;;;;;;;14.82;62.14;100033.55;1391043;92;21409;-82
2022/06/23 03:22:13;;;;;;;6.53;2.00;;;;;;;14.83;61.83;100024.53;1419086;91;21474;-82
2022/06/23 03:24:53;;;;;;;4.10;2.27;;;;;;;14.86;61.76;100034.81;1409719;92;21365;-81
2022/06/23 03:27:46;;;;;;;6.72;2.30;;;;;;;14.86;61.85;100028.67;1414901;92;21680;-82
2022/06/23 03:30:29;;;;;;;4.87;2.30;;;;;;;14.87;61.67;100026.31;1364141;92;21644;-82
2022/06/23 03:33:03;;;;;;;4.57;2.60;;;;;;;14.86;61.65;100025.49;1402180;92;22450;-82
2022/06/23 03:35:50;;;;;;;8.43;2.67;;;;;;;14.84;61.73;100034.68;1405717;92;22428;-81
2022/06/23 03:41:39;;;;;;;7.37;2.93;;;;;;;14.79;62.15;100035.25;1423022;92;21429;-82
2022/06/23 03:44:23;;;;;;;6.43;3.33;;;;;;;14.78;62.01;100025.59;1415430;92;22413;-81
2022/06/23 03:47:13;;;;;;;4.50;2.83;;;;;;;14.83;62.71;100027.20;1406937;92;21407;-79
2022/06/23 03:49:53;;;;;;;4.23;2.30;;;;;;;14.89;62.68;100035.78;1411581;92;21386;-79
2022/06/23 03:52:30;;;;;;;8.33;3.50;;;;;;;14.95;62.73;100040.05;1410752;91;21500;-82
2022/06/23 03:55:07;;;;;;;3.73;2.20;;;;;;;15.00;62.17;100040.33;1396843;93;21428;-82
2022/06/23 03:57:39;;;;;;;4.93;2.47;;;;;;;15.04;62.04;100041.09;1412484;92;22332;-82
2022/06/23 04:00:22;;;;;;;4.70;2.97;;;;;;;15.08;61.79;100038.90;1408925;93;21541;-82
2022/06/23 04:03:24;;;;;;;5.30;2.43;;;;;;;15.12;61.70;100040.16;1409085;93;21475;-82
2022/06/23 04:06:14;;;;;;;5.53;2.57;;;;;;;15.16;62.06;100039.28;1405414;92;22317;-82
2022/06/23 04:09:12;;;;;;;6.53;2.80;;;;;;;15.16;62.74;100033.44;1401508;93;21541;-82
2022/06/23 04:11:56;;;;;;;9.20;2.87;;;;;;;15.23;62.84;100044.20;1413608;92;21397;-81
2022/06/23 04:14:44;;;;;;;8.50;2.53;;;;;;;15.30;62.34;100049.91;1427803;91;21413;-82
2022/06/23 04:17:22;;;;;;;11.03;2.57;;;;;;;15.39;62.89;100053.80;1387822;93;21405;-82
2022/06/23 04:19:53;;;;;;;7.20;3.20;;;;;;;15.46;62.44;100057.37;1384228;94;21592;-82
2022/06/23 04:22:48;;;;;;;7.62;2.30;;;;;;;15.52;63.04;100059.30;1406730;92;21666;-81
2022/06/23 04:25:25;;;;;;;8.70;2.70;;;;;;;15.61;62.62;100068.00;1394771;93;21452;-82
2022/06/23 04:27:56;;;;;;;6.37;3.30;;;;;;;15.66;61.97;100074.42;1404459;92;21467;-81
2022/06/23 04:30:32;;;;;;;7.30;2.33;;;;;;;15.74;62.47;100067.67;1406477;93;21452;-81
2022/06/23 04:33:03;;;;;;;11.97;3.07;;;;;;;15.86;63.08;100074.66;1403565;93;21400;-81
2022/06/23 04:35:37;;;;;;;5.80;2.17;;;;;;;15.96;62.50;100094.34;1407618;93;21489;-81
2022/06/23 04:38:29;;;;;;;4.80;2.00;;;;;;;16.03;61.96;100098.43;1400882;93;21481;-81
2022/06/23 04:41:16;;;;;;;6.73;2.43;;;;;;;16.12;61.49;100094.09;1408859;93;22259;-81
2022/06/23 04:43:55;;;;;;;5.97;2.20;;;;;;;16.18;60.72;100102.66;1409546;93;21876;-81
2022/06/23 04:46:50;;;;;;;3.63;1.80;;;;;;;16.19;60.28;100102.97;1400766;93;22377;-81
2022/06/23 04:49:30;;;;;;;5.30;2.30;;;;;;;16.18;59.84;100113.34;1411364;93;21423;-81
2022/06/23 04:52:05;;;;;;;7.67;2.40;;;;;;;16.19;60.06;100122.17;1404730;93;21357;-81
2022/06/23 04:54:55;;;;;;;6.37;2.00;;;;;;;16.18;59.79;100120.02;1400390;92;21420;-82
2022/06/23 04:57:54;;;;;;;9.50;2.17;;;;;;;16.23;59.99;100124.28;1404623;92;21615;-81
2022/06/23 05:00:25;;;;;;;8.57;2.53;;;;;;;16.30;59.61;100124.84;1390739;93;22012;-81
2022/06/23 05:02:58;;;;;;;5.83;2.10;;;;;;;16.46;59.21;100136.09;1413053;92;21452;-82
2022/06/23 05:05:34;;;;;;;3.13;1.90;;;;;;;16.52;58.29;100133.16;1404674;93;22347;-81
2022/06/23 05:08:24;;;;;;;7.43;1.77;;;;;;;16.56;58.64;100138.41;1400600;93;21357;-81
2022/06/23 05:11:09;;;;;;;4.85;2.20;;;;;;;16.65;58.37;100140.43;1403659;93;21482;-81
2022/06/23 05:13:47;;;;;;;8.50;1.60;;;;;;;16.78;58.05;100153.11;1404898;93;22119;-83
2022/06/23 05:16:19;;;;;;;54.30;4.03;;;;;;;16.95;58.30;100149.11;1402427;93;22444;-88
2022/06/23 05:18:49;;;;;;;5.70;2.03;;;;;;;17.12;57.85;100145.11;1405694;93;21467;-89
2022/06/23 05:21:25;;;;;;;;;;;;;;;17.30;57.57;100147.25;1409376;93;21437;-89
2022/06/23 05:24:06;;;;;;;11.67;2.33;;;;;;;17.46;55.47;100148.75;1405804;91;21622;-90
2022/06/23 05:26:47;;;;;;;10.43;2.17;;;;;;;17.68;55.42;100152.66;1400828;92;21439;-86
2022/06/23 05:29:24;;;;;;;3.30;1.90;;;;;;;17.88;55.08;100152.23;1400655;92;21519;-86
2022/06/23 05:31:56;;;;;;;15.53;2.43;;;;;;;18.08;54.93;100157.63;1406946;93;22792;-84
2022/06/23 05:34:26;;;;;;;6.07;1.73;;;;;;;18.25;54.49;100152.20;1405450;93;21533;-85
2022/06/23 05:37:08;;;;;;;;;;;;;;;18.42;52.88;100155.30;1412053;92;21518;-84
2022/06/23 05:39:46;;;;;;;5.50;2.20;;;;;;;18.57;52.42;100152.94;1407814;91;21355;-84
2022/06/23 05:42:28;;;;;;;11.50;2.30;;;;;;;18.73;52.13;100157.89;1400200;93;21480;-84
2022/06/23 05:45:06;;;;;;;8.10;2.50;;;;;;;18.91;52.59;100160.78;1379124;95;21461;-84
2022/06/23 05:47:33;;;;;;;7.83;2.17;;;;;;;19.12;51.49;100166.92;1377078;94;22445;-84
2022/06/23 05:50:05;;;;;;;13.57;2.37;;;;;;;19.25;49.31;100166.05;1377597;95;21403;-84
2022/06/23 05:52:39;;;;;;;9.90;2.50;;;;;;;19.37;50.03;100169.23;1381107;94;21493;-84
2022/06/23 05:55:14;;;;;;;2.27;1.70;;;;;;;19.49;49.36;100173.42;1417907;91;21459;-85
2022/06/23 05:57:57;;;;;;;8.63;2.30;;;;;;;19.58;49.11;100180.72;1411646;92;22828;-84
2022/06/23 06:00:48;;;;;;;3.73;1.80;;;;;;;19.69;48.95;100181.42;1408367;92;21466;-84
2022/06/23 06:03:31;;;;;;;9.68;2.08;;;;;;;19.81;48.75;100181.05;1407827;92;21415;-85
2022/06/23 06:06:01;;;;;;;10.20;2.30;;;;;;;20.02;48.97;100180.42;1405871;92;21504;-84
2022/06/23 06:08:32;;;;;;;3.27;2.02;;;;;;;20.20;48.89;100184.56;1331893;93;22289;-84
2022/06/23 06:11:03;;;;;;;5.20;1.80;;;;;;;20.35;48.39;100183.44;1432759;92;22326;-85
2022/06/23 06:16:20;;;;;;;10.10;1.82;;;;;;;20.51;47.19;100177.51;1475967;93;23027;-84
2022/06/23 06:19:16;;;;;;;5.60;1.80;;;;;;;20.65;47.75;100181.77;1403843;93;21424;-85
2022/06/23 06:21:54;;;;;;;;;;;;;;;;;;;;;
2022/06/23 06:24:25;;;;;;;5.50;1.90;;;;;;;20.93;47.14;100188.57;1334995;93;21439;-85
2022/06/23 06:26:54;;;;;;;10.15;2.12;;;;;;;21.02;46.47;100185.07;1478287;92;21312;-86
2022/06/23 06:29:28;;;;;;;8.43;1.80;;;;;;;21.11;45.14;100189.11;1380932;93;21400;-85
2022/06/23 06:32:22;;;;;;;8.15;1.90;;;;;;;21.19;45.45;100186.95;1409258;92;21467;-87
2022/06/23 06:34:53;;;;;;;7.17;2.35;;;;;;;21.37;45.20;100189.39;1406446;92;22416;-85
2022/06/23 06:37:23;;;;;;;2.50;1.70;;;;;;;21.56;44.75;100188.34;1409563;93;21445;-87
2022/06/23 06:39:57;;;;;;;4.90;1.70;;;;;;;21.76;45.03;100182.70;1403063;93;21460;-87
2022/06/23 06:42:29;;;;;;;5.03;1.72;;;;;;;21.96;43.92;100185.67;1408136;93;22435;-84
2022/06/23 06:44:59;;;;;;;9.55;2.27;;;;;;;22.06;43.85;100182.70;1405690;92;22459;-86
2022/06/23 06:47:32;;;;;;;13.53;3.52;;;;;;;22.02;42.61;100184.22;1390364;93;21401;-86
2022/06/23 06:50:06;;;;;;;6.53;2.10;;;;;;;22.11;43.42;100191.98;1404648;93;22267;-88
2022/06/23 06:52:33;;;;;;;19.82;2.52;;;;;;;22.16;41.66;100187.55;1405102;91;22487;-87
2022/06/23 06:55:04;;;;;;;6.95;2.35;;;;;;;22.34;43.21;100192.08;1400908;93;21548;-88
2022/06/23 06:57:39;;;;;;;6.92;2.00;;;;;;;22.52;42.73;100187.13;1404348;93;21467;-86
2022/06/23 07:00:11;;;;;;;9.83;2.90;;;;;;;22.60;42.33;100192.72;1403876;92;21666;-86
2022/06/23 07:02:56;;;;;;;11.97;2.20;;;;;;;22.77;42.17;100190.98;1405733;93;22378;-87
2022/06/23 07:05:31;;;;;;;5.30;1.90;;;;;;;22.93;41.00;100191.64;1407703;93;21430;-85
2022/06/23 07:08:22;;;;;;;4.30;1.60;;;;;;;23.08;41.23;100187.77;1404750;93;21357;-85
2022/06/23 07:11:02;;;;;;;13.18;4.12;;;;;;;23.13;40.20;100187.77;1409327;93;21557;-87
2022/06/23 07:13:40;;;;;;;7.30;3.83;;;;;;;23.25;40.15;100199.41;1409650;92;21415;-86
2022/06/23 07:16:23;;;;;;;18.23;8.78;;;;;;;23.42;40.46;100203.02;1404216;92;23712;-80
2022/06/23 07:18:58;;;;;;;23.27;6.20;;;;;;;23.42;40.46;100203.02;1424658;91;21538;-86
2022/06/23 07:21:50;;;;;;;4.17;2.85;;;;;;;23.61;39.98;100200.14;1406904;93;21515;-81
2022/06/23 07:24:24;;;;;;;4.42;2.37;;;;;;;23.77;38.21;100201.32;1416047;91;21474;-85
2022/06/23 07:27:02;;;;;;;4.62;2.72;;;;;;;23.80;37.55;100200.30;1409199;92;22302;-84
2022/06/23 07:29:45;;;;;;;10.32;3.15;;;;;;;23.71;37.04;100205.80;1420421;91;21459;-84
2022/06/23 07:32:20;;;;;;;8.78;2.47;;;;;;;23.97;38.37;100202.25;1390233;93;21701;-83
2022/06/23 07:34:56;;;;;;;17.75;2.90;;;;;;;24.15;37.79;100208.80;1433469;91;21582;-86
2022/06/23 07:37:34;;;;;;;4.67;1.60;;;;;;;24.13;35.11;100210.09;1425278;91;21567;-85
2022/06/23 07:40:05;;;;;;;17.70;2.75;;;;;;;24.24;35.16;100218.69;1399121;93;21419;-85
2022/06/23 07:42:56;;;;;;;6.20;1.47;;;;;;;24.40;36.05;100224.66;1406482;92;21342;-85
2022/06/23 07:45:38;;;;;;;8.85;1.95;;;;;;;24.59;34.38;100213.64;1404312;92;21681;-85
2022/06/23 07:48:05;;;;;;;9.90;1.85;;;;;;;24.69;33.52;100223.28;1369222;95;22746;-85
2022/06/23 07:50:31;;;;;;;7.62;2.40;;;;;;;24.62;33.60;100220.72;1387740;94;21963;-85
2022/06/23 07:52:59;;;;;;;6.87;1.90;;;;;;;24.83;34.74;100226.46;1384899;95;21387;-85
2022/06/23 07:55:31;;;;;;;2.37;1.67;;;;;;;24.86;32.70;100225.45;1383923;94;21395;-85
2022/06/23 07:57:59;;;;;;;6.97;1.92;;;;;;;24.82;33.20;100213.47;1381515;95;21605;-84
2022/06/23 08:00:26;;;;;;;4.03;1.75;;;;;;;24.84;34.02;100226.23;1410046;93;21501;-85
2022/06/23 08:03:00;;;;;;;4.83;1.55;;;;;;;24.90;34.32;100222.53;1423487;91;21553;-86
2022/06/23 08:05:44;;;;;;;4.62;1.60;;;;;;;25.02;33.14;100221.08;1400309;92;21600;-85
2022/06/23 08:08:19;;;;;;;2.80;1.82;;;;;;;24.96;32.13;100219.37;1404051;93;21483;-85
2022/06/23 08:10:48;;;;;;;3.00;1.57;;;;;;;24.90;32.71;100216.30;1406914;93;22400;-84
2022/06/23 08:13:21;;;;;;;6.05;1.52;;;;;;;25.01;32.81;100216.74;1399964;93;21467;-86
2022/06/23 08:19:29;;;;;;;5.67;1.65;;;;;;;25.10;31.33;100210.37;1410195;93;21386;-85
2022/06/23 08:22:00;;;;;;;2.65;1.50;;;;;;;25.20;32.30;100215.95;1405295;93;21402;-85
2022/06/23 08:24:26;;;;;;;2.08;1.82;;;;;;;25.12;32.22;100215.83;1386845;94;21572;-84
2022/06/23 08:27:09;;;;;;;2.62;1.52;;;;;;;25.32;32.28;100211.77;1396754;94;21410;-85
2022/06/23 08:29:52;;;;;;;3.40;1.60;;;;;;;25.44;31.35;100219.27;1397054;93;21497;-85
2022/06/23 08:32:19;;;;;;;4.47;1.72;;;;;;;25.51;31.63;100209.59;1406743;92;22318;-85
2022/06/23 08:35:11;;;;;;;12.53;1.50;;;;;;;25.62;30.78;100216.78;1383509;95;22293;-85
2022/06/23 08:37:52;;;;;;;6.67;1.50;;;;;;;25.73;30.47;100217.73;1421763;91;21531;-86
2022/06/23 08:40:59;;;;;;;6.75;1.75;;;;;;;25.74;30.32;100224.24;1399144;92;22393;-86
2022/06/23 08:43:43;;;;;;;2.00;1.80;;;;;;;25.74;30.26;100223.42;1376370;94;21535;-85
2022/06/23 08:46:27;;;;;;;3.45;1.70;;;;;;;25.79;29.50;100226.20;1378327;94;21451;-86
2022/06/23 08:49:37;;;;;;;6.45;1.87;;;;;;;25.94;30.64;100224.23;1386369;93;21615;-85
2022/06/23 08:52:24;;;;;;;4.67;1.62;;;;;;;26.05;29.32;100217.85;1416343;92;21334;-86
2022/06/23 08:55:14;;;;;;;10.48;2.08;;;;;;;26.27;30.15;100225.95;1411012;92;22483;-86
2022/06/23 08:57:57;;;;;;;2.70;1.70;;;;;;;26.43;30.73;100234.50;1417946;91;21607;-87
2022/06/23 09:00:41;;;;;;;4.28;1.72;;;;;;;26.53;29.67;100219.70;1417685;92;22514;-87
2022/06/23 09:03:31;;;;;;;19.35;2.58;;;;;;;26.55;28.62;100227.58;1400983;92;21313;-86
2022/06/23 09:06:13;;;;;;;3.42;1.70;;;;;;;26.59;29.37;100220.57;1402225;92;21578;-86
2022/06/23 09:09:11;;;;;;;13.68;1.87;;;;;;;26.74;29.36;100219.87;1420686;92;22387;-86
2022/06/23 09:12:14;;;;;;;12.63;2.22;;;;;;;26.85;29.30;100229.73;1414994;92;21356;-85
2022/06/23 09:15:10;;;;;;;5.55;1.27;;;;;;;27.05;29.32;100227.70;1403630;91;21474;-86
2022/06/23 09:18:03;;;;;;;3.98;1.37;;;;;;;27.15;28.87;100220.14;1407615;92;22369;-85
2022/06/23 09:21:13;;;;;;;2.90;1.57;;;;;;;27.43;28.91;100218.44;1411528;92;22353;-86
2022/06/23 09:23:54;;;;;;;;;;;;;;;27.59;29.07;100225.28;1409652;92;21482;-85
2022/06/23 09:26:45;;;;;;;6.58;1.80;;;;;;;27.62;27.58;100221.52;1417197;92;20457;-86
2022/06/23 09:29:32;;;;;;;2.30;1.30;;;;;;;27.70;27.85;100218.81;1420755;92;21680;-86
2022/06/23 09:32:20;;;;;;;4.28;1.37;;;;;;;27.74;27.07;100228.09;1404390;92;21451;-85
2022/06/23 09:35:27;;;;;;;2.17;1.52;;;;;;;27.80;27.12;100220.80;1405434;92;21570;-86
2022/06/23 09:38:19;;;;;;;4.78;1.57;;;;;;;27.82;26.99;100216.73;1416141;92;22369;-86
2022/06/23 09:41:10;;;;;;;5.00;1.47;;;;;;;27.87;24.14;100215.91;1438045;90;22247;-86
2022/06/23 09:44:23;;;;;;;2.35;1.40;;;;;;;27.82;25.84;100217.25;1421255;91;21526;-85
2022/06/23 09:47:30;;;;;;;3.47;1.32;;;;;;;27.98;27.27;100218.94;1380883;93;21502;-85
2022/06/23 09:50:18;;;;;;;3.65;1.72;;;;;;;27.99;26.83;100210.23;1389095;94;21536;-85
2022/06/23 09:53:05;;;;;;;11.20;2.42;;;;;;;28.15;27.31;100205.11;1404233;93;21468;-86
2022/06/23 09:55:43;;;;;;;5.33;1.45;;;;;;;28.18;26.82;100216.81;1398659;93;22399;-84
2022/06/23 09:58:43;;;;;;;2.98;1.15;;;;;;;28.11;26.76;100214.36;1407276;92;21423;-84
2022/06/23 10:01:51;;;;;;;5.15;1.12;;;;;;;28.14;25.34;100210.28;1390657;92;21490;-87
2022/06/23 10:04:43;;;;;;;9.03;1.40;;;;;;;28.04;27.31;100211.61;1406496;92;21552;-86
2022/06/23 10:07:35;;;;;;;4.22;2.02;;;;;;;27.97;28.00;100213.23;1399249;93;21401;-84
2022/06/23 10:10:22;;;;;;;5.50;1.40;;;;;;;28.07;26.42;100219.23;1403693;92;21394;-85
2022/06/23 10:13:28;;;;;;;2.20;1.52;;;;;;;28.09;27.39;100208.91;1396222;92;22510;-77
2022/06/23 10:16:08;;;;;;;8.70;1.75;;;;;;;27.97;27.22;100211.88;1426436;91;22344;-77
2022/06/23 10:19:01;;;;;;;3.45;1.42;;;;;;;27.82;26.14;100215.38;1434534;91;22270;-77
2022/06/23 10:22:01;;;;;;;6.40;1.27;;;;;;;28.05;27.19;100205.07;1422993;91;21442;-77
2022/06/23 10:25:06;;;;;;;7.05;1.32;;;;;;;28.07;27.00;100212.43;1422207;91;21443;-77
2022/06/23 10:28:01;;;;;;;5.12;1.40;;;;;;;27.66;27.47;100215.00;1416828;90;21334;-78
2022/06/23 10:30:59;;;;;;;3.95;1.40;;;;;;;27.92;27.81;100216.48;1397442;92;21511;-78
2022/06/23 10:34:05;;;;;;;3.30;1.55;;;;;;;28.06;28.50;100214.89;1437027;90;22581;-78
2022/06/23 10:37:00;;;;;;;2.35;1.55;;;;;;;28.19;26.61;100221.15;1428269;89;21606;-78
2022/06/23 10:39:50;;;;;;;2.30;1.42;;;;;;;28.37;26.72;100225.80;1439370;90;21382;-77
2022/06/23 10:42:30;;;;;;;5.08;1.45;;;;;;;28.21;26.71;100223.07;1440887;88;22415;-78
2022/06/23 10:45:39;;;;;;;2.52;1.10;;;;;;;28.33;26.21;100218.73;1444242;90;21510;-78
2022/06/23 10:48:46;;;;;;;5.40;1.63;;;;;;;28.67;26.69;100214.97;1439767;90;21323;-78
2022/06/23 10:51:51;;;;;;;4.85;1.90;;;;;;;28.96;26.01;100203.50;1433593;89;21323;-78
2022/06/23 10:54:38;;;;;;;2.85;1.70;;;;;;;29.37;26.23;100199.33;1426371;90;21615;-78
2022/06/23 10:57:19;;;;;;;9.45;1.50;;;;;;;29.21;25.68;100198.02;1416352;92;21438;-76
2022/06/23 11:00:12;;;;;;;2.33;1.30;;;;;;;28.67;25.73;100205.44;1437010;89;22362;-76
2022/06/23 11:03:19;;;;;;;4.58;1.57;;;;;;;28.49;25.92;100211.44;1414694;92;21540;-76
2022/06/23 11:06:12;;;;;;;2.60;1.75;;;;;;;28.72;25.58;100200.54;1390440;93;21497;-76
2022/06/23 11:08:49;;;;;;;2.45;1.60;;;;;;;28.86;25.57;100200.25;1399686;93;21540;-76
2022/06/23 11:11:39;;;;;;;4.72;1.70;;;;;;;29.06;24.70;100198.08;1390904;93;21429;-75
2022/06/23 11:14:23;;;;;;;3.47;1.37;;;;;;;29.16;24.45;100202.67;1408416;92;21518;-76
2022/06/23 11:17:04;;;;;;;3.72;1.50;;;;;;;29.30;25.78;100204.27;1416165;92;21238;-76
2022/06/23 11:19:52;;;;;;;3.25;1.42;;;;;;;29.17;25.58;100195.56;1412550;92;21587;-76
2022/06/23 11:23:00;;;;;;;4.55;1.77;;;;;;;28.68;25.61;100211.14;1411512;92;21429;-81
2022/06/23 11:25:40;;;;;;;3.58;1.30;;;;;;;28.77;25.84;100193.19;1407002;92;21424;-87
2022/06/23 11:28:37;;;;;;;2.65;1.70;;;;;;;28.88;26.64;100198.60;1422407;92;22540;-81
2022/06/23 11:31:45;;;;;;;8.50;1.52;;;;;;;29.03;25.17;100199.95;1408900;92;22420;-81
2022/06/23 11:34:32;;;;;;;7.60;1.57;;;;;;;29.23;27.29;100204.54;1409767;92;21452;-81
2022/06/23 11:37:19;;;;;;;2.67;1.55;;;;;;;29.05;25.21;100196.42;1411467;92;21401;-80
2022/06/23 11:40:28;;;;;;;9.45;1.70;;;;;;;29.09;25.77;100197.52;1416507;92;21480;-81
2022/06/23 11:43:20;;;;;;;2.77;1.52;;;;;;;29.33;25.89;100196.90;1418142;92;21711;-81
2022/06/23 11:45:54;;;;;;;5.10;1.57;;;;;;;29.11;26.07;100195.86;1429371;91;21658;-80
2022/06/23 11:49:12;;;;;;;3.58;1.52;;;;;;;28.78;26.40;100197.53;1420486;91;21651;-80
2022/06/23 11:52:04;;;;;;;8.78;1.85;;;;;;;28.46;26.53;100207.35;1409837;92;21578;-80
2022/06/23 11:54:59;;;;;;;1.72;1.35;;;;;;;28.41;26.84;100209.22;1417424;92;21655;-80
2022/06/23 11:57:40;;;;;;;3.27;1.45;;;;;;;28.68;26.92;100205.69;1422583;91;21548;-81
2022/06/23 12:00:11;;;;;;;3.20;1.60;;;;;;;28.99;26.53;100203.75;1406994;92;21496;-81
2022/06/23 12:02:49;;;;;;;6.67;1.70;;;;;;;29.27;26.10;100202.10;1415480;92;21666;-80
2022/06/23 12:05:36;;;;;;;7.10;1.40;;;;;;;29.03;25.17;100206.77;1412779;91;21437;-79
2022/06/23 12:08:20;;;;;;;2.33;1.57;;;;;;;29.00;26.03;100197.75;1418065;90;22471;-79
2022/06/23 12:10:46;;;;;;;2.47;1.55;;;;;;;29.20;25.81;100196.92;1409020;92;21408;-80
2022/06/23 12:13:12;;;;;;;4.35;1.52;;;;;;;29.12;25.66;100198.33;1411374;91;23660;-80
2022/06/23 12:15:43;;;;;;;2.27;1.52;;;;;;;28.78;26.14;100207.06;1415148;91;21366;-80
2022/06/23 12:18:21;;;;;;;3.95;1.47;;;;;;;28.41;26.81;100203.78;1422950;91;21575;-80
2022/06/23 12:21:23;;;;;;;2.37;1.40;;;;;;;28.10;26.91;100211.89;1427255;91;21456;-80
2022/06/23 12:23:57;;;;;;;3.42;1.75;;;;;;;28.07;27.66;100205.08;1402428;92;21608;-80
2022/06/23 12:26:30;;;;;;;10.53;1.90;;;;;;;27.93;28.02;100205.87;1414405;92;22837;-80
2022/06/23 12:29:20;;;;;;;4.62;1.80;;;;;;;27.84;27.56;100198.77;1423999;91;21382;-79
2022/06/23 12:32:28;;;;;;;3.22;1.67;;;;;;;27.83;27.98;100202.59;1443511;90;21433;-80
2022/06/23 12:35:46;;;;;;;6.37;1.80;;;;;;;28.20;27.56;100198.32;1436067;90;22393;-80
2022/06/23 12:38:24;;;;;;;4.30;1.40;;;;;;;28.55;27.55;100201.62;1437246;89;21370;-79
2022/06/23 12:41:11;;;;;;;4.20;1.90;;;;;;;28.87;26.74;100190.17;1437927;90;21435;-80
2022/06/23 12:43:57;;;;;;;9.78;1.70;;;;;;;28.84;26.40;100188.00;1440144;90;22375;-80
2022/06/23 12:46:35;;;;;;;3.27;1.75;;;;;;;29.28;26.87;100185.45;1402618;93;21488;-80
2022/06/23 12:49:42;;;;;;;5.95;2.08;;;;;;;29.55;26.23;100190.55;1393952;93;21639;-80
2022/06/23 12:52:31;;;;;;;4.25;1.30;;;;;;;29.57;26.18;100188.34;1410264;92;21446;-80
2022/06/23 12:55:38;;;;;;;2.83;2.00;;;;;;;29.46;26.71;100186.75;1395598;93;21939;-80
2022/06/23 12:58:21;;;;;;;6.53;1.95;;;;;;;29.10;26.51;100184.16;1416437;91;21464;-79